S73 Hermelin — DRCG — position and weather

sailwx.info

Track history (hours):
 
Tides and Currents Weather Stations Pressure Air Temp Water Temp Dewpoint Dewpoint Depression Visibility Wind Speed Wind Dir Waves Ship Positions

S73 Hermelin

Last reported at 2016-Apr-26 10:23 UTC. Time now 2016-Apr-29 08:15 UTC.
Position N 54°10' E 012°07'.

Length 58 m.

Type: Military. MMSI: 211210610.

Date/timePositionNaut miles runAvg speedWind from/ knotsBaromVisibWave heightAir tempDewpointWater temp
2016-Apr-26 10:23N 54°10' E 012°07'6 7.4
2016-Apr-26 09:33N 54°16' E 012°03'1414.0
2016-Apr-26 08:33N 54°12' E 011°40'1211.5
2016-Apr-26 07:33N 54°03' E 011°26'6 6.3
2016-Apr-26 06:33N 53°59' E 011°19'25 1.8
2016-Apr-25 16:33N 54°23' E 011°09'1614.3
2016-Apr-25 15:25N 54°25' E 010°41'1618.9
2016-Apr-25 14:33N 54°26' E 010°14'2 0.6
2016-Apr-25 10:34N 54°24' E 010°12'1813.5
2016-Apr-25 09:16N 54°35' E 010°36'1622.8
2016-Apr-25 08:33N 54°36' E 011°04'2222.5
2016-Apr-25 07:33N 54°26' E 011°38'2221.8
2016-Apr-25 06:33N 54°11' E 012°05'  
Track history (hours):
 
Tides and Currents Weather Stations Pressure Air Temp Water Temp Dewpoint Dewpoint Depression Visibility Wind Speed Wind Dir Waves Ship Positions

S73 Hermelin

Last reported at 2016-Apr-26 10:23 UTC. Time now 2016-Apr-29 08:15 UTC.
Position N 54°10' E 012°07'.

Length 58 m.

Type: Military. MMSI: 211210610.

Date/timePositionNaut miles runAvg speedWind from/ knotsBaromVisibWave heightAir tempDewpointWater temp
2016-Apr-26 10:23N 54°10' E 012°07'6 7.4
2016-Apr-26 09:33N 54°16' E 012°03'1414.0
2016-Apr-26 08:33N 54°12' E 011°40'1211.5
2016-Apr-26 07:33N 54°03' E 011°26'6 6.3
2016-Apr-26 06:33N 53°59' E 011°19'25 1.8
2016-Apr-25 16:33N 54°23' E 011°09'1614.3
2016-Apr-25 15:25N 54°25' E 010°41'1618.9
2016-Apr-25 14:33N 54°26' E 010°14'2 0.6
2016-Apr-25 10:34N 54°24' E 010°12'1813.5
2016-Apr-25 09:16N 54°35' E 010°36'1622.8
2016-Apr-25 08:33N 54°36' E 011°04'2222.5
2016-Apr-25 07:33N 54°26' E 011°38'2221.8
2016-Apr-25 06:33N 54°11' E 012°05'  

Dump ship's entire track history